sensor_id;sensor_type;location;lat;lon;timestamp;P1;durP1;ratioP1;P2;durP2;ratioP2
59512;SDS011;45330;51.634;5.562;2023-08-21T00:01:55;10.15;;;3.17;;
59512;SDS011;45330;51.634;5.562;2023-08-21T00:04:21;12.55;;;3.28;;
59512;SDS011;45330;51.634;5.562;2023-08-21T00:06:46;11.40;;;3.45;;
59512;SDS011;45330;51.634;5.562;2023-08-21T00:09:12;14.48;;;3.58;;
59512;SDS011;45330;51.634;5.562;2023-08-21T00:11:37;11.95;;;3.72;;
59512;SDS011;45330;51.634;5.562;2023-08-21T00:14:03;13.35;;;3.33;;
59512;SDS011;45330;51.634;5.562;2023-08-21T00:16:28;12.07;;;3.25;;
59512;SDS011;45330;51.634;5.562;2023-08-21T00:18:54;12.23;;;3.45;;
59512;SDS011;45330;51.634;5.562;2023-08-21T00:21:19;14.18;;;3.33;;
59512;SDS011;45330;51.634;5.562;2023-08-21T00:23:45;11.95;;;3.67;;
59512;SDS011;45330;51.634;5.562;2023-08-21T00:26:11;15.35;;;3.55;;
59512;SDS011;45330;51.634;5.562;2023-08-21T00:28:37;15.10;;;3.70;;
59512;SDS011;45330;51.634;5.562;2023-08-21T00:31:03;14.20;;;3.70;;
59512;SDS011;45330;51.634;5.562;2023-08-21T00:33:32;12.18;;;3.28;;
59512;SDS011;45330;51.634;5.562;2023-08-21T00:35:58;15.02;;;3.58;;
59512;SDS011;45330;51.634;5.562;2023-08-21T00:38:23;13.32;;;3.70;;
59512;SDS011;45330;51.634;5.562;2023-08-21T00:40:49;10.57;;;3.58;;
59512;SDS011;45330;51.634;5.562;2023-08-21T00:43:15;11.15;;;3.38;;
59512;SDS011;45330;51.634;5.562;2023-08-21T00:45:41;11.63;;;3.60;;
59512;SDS011;45330;51.634;5.562;2023-08-21T00:48:09;13.32;;;3.50;;
59512;SDS011;45330;51.634;5.562;2023-08-21T00:50:35;12.13;;;3.53;;
59512;SDS011;45330;51.634;5.562;2023-08-21T00:53:01;11.25;;;3.78;;
59512;SDS011;45330;51.634;5.562;2023-08-21T00:55:28;11.18;;;3.13;;
59512;SDS011;45330;51.634;5.562;2023-08-21T00:57:54;12.35;;;3.88;;
59512;SDS011;45330;51.634;5.562;2023-08-21T01:00:19;11.27;;;3.75;;
59512;SDS011;45330;51.634;5.562;2023-08-21T01:02:47;11.02;;;3.58;;
59512;SDS011;45330;51.634;5.562;2023-08-21T01:05:12;12.18;;;3.42;;
59512;SDS011;45330;51.634;5.562;2023-08-21T01:07:38;15.85;;;4.10;;
59512;SDS011;45330;51.634;5.562;2023-08-21T01:13:24;12.63;;;3.80;;
59512;SDS011;45330;51.634;5.562;2023-08-21T01:16:10;15.10;;;3.90;;
59512;SDS011;45330;51.634;5.562;2023-08-21T01:18:38;15.68;;;4.00;;
59512;SDS011;45330;51.634;5.562;2023-08-21T01:21:04;13.95;;;4.28;;
59512;SDS011;45330;51.634;5.562;2023-08-21T01:23:31;12.38;;;3.60;;
59512;SDS011;45330;51.634;5.562;2023-08-21T01:25:57;9.45;;;3.85;;
59512;SDS011;45330;51.634;5.562;2023-08-21T01:28:23;11.77;;;3.90;;
59512;SDS011;45330;51.634;5.562;2023-08-21T01:30:49;14.07;;;4.10;;
59512;SDS011;45330;51.634;5.562;2023-08-21T01:33:20;17.80;;;4.25;;
59512;SDS011;45330;51.634;5.562;2023-08-21T01:35:47;12.15;;;4.03;;
59512;SDS011;45330;51.634;5.562;2023-08-21T01:38:14;13.18;;;4.30;;
59512;SDS011;45330;51.634;5.562;2023-08-21T01:40:39;12.77;;;4.00;;
59512;SDS011;45330;51.634;5.562;2023-08-21T01:43:05;16.00;;;3.70;;
59512;SDS011;45330;51.634;5.562;2023-08-21T01:45:30;11.63;;;4.05;;
59512;SDS011;45330;51.634;5.562;2023-08-21T01:47:55;14.13;;;3.85;;
59512;SDS011;45330;51.634;5.562;2023-08-21T01:50:21;13.38;;;4.07;;
59512;SDS011;45330;51.634;5.562;2023-08-21T01:52:46;11.07;;;4.13;;
59512;SDS011;45330;51.634;5.562;2023-08-21T01:55:12;13.60;;;3.67;;
59512;SDS011;45330;51.634;5.562;2023-08-21T01:57:38;13.48;;;3.88;;
59512;SDS011;45330;51.634;5.562;2023-08-21T02:00:04;10.80;;;4.00;;
59512;SDS011;45330;51.634;5.562;2023-08-21T02:02:30;15.00;;;4.10;;
59512;SDS011;45330;51.634;5.562;2023-08-21T02:04:55;14.07;;;3.97;;
59512;SDS011;45330;51.634;5.562;2023-08-21T02:07:21;15.25;;;4.57;;
59512;SDS011;45330;51.634;5.562;2023-08-21T02:09:46;12.25;;;4.10;;
59512;SDS011;45330;51.634;5.562;2023-08-21T02:12:11;11.93;;;4.00;;
59512;SDS011;45330;51.634;5.562;2023-08-21T02:14:37;13.80;;;3.92;;
59512;SDS011;45330;51.634;5.562;2023-08-21T02:17:02;17.17;;;4.30;;
59512;SDS011;45330;51.634;5.562;2023-08-21T02:19:28;15.80;;;4.50;;
59512;SDS011;45330;51.634;5.562;2023-08-21T02:21:53;14.23;;;4.70;;
59512;SDS011;45330;51.634;5.562;2023-08-21T02:24:18;16.80;;;4.68;;
59512;SDS011;45330;51.634;5.562;2023-08-21T02:26:44;12.52;;;4.20;;
59512;SDS011;45330;51.634;5.562;2023-08-21T02:29:10;13.45;;;4.45;;
59512;SDS011;45330;51.634;5.562;2023-08-21T02:31:36;15.45;;;4.68;;
59512;SDS011;45330;51.634;5.562;2023-08-21T02:34:01;14.32;;;4.43;;
59512;SDS011;45330;51.634;5.562;2023-08-21T02:36:27;16.00;;;4.40;;
59512;SDS011;45330;51.634;5.562;2023-08-21T02:38:52;15.07;;;4.60;;
59512;SDS011;45330;51.634;5.562;2023-08-21T02:41:17;14.23;;;4.68;;
59512;SDS011;45330;51.634;5.562;2023-08-21T02:43:43;13.88;;;4.35;;
59512;SDS011;45330;51.634;5.562;2023-08-21T02:46:08;12.35;;;4.35;;
59512;SDS011;45330;51.634;5.562;2023-08-21T02:48:34;14.02;;;4.03;;
59512;SDS011;45330;51.634;5.562;2023-08-21T02:50:59;14.85;;;4.60;;
59512;SDS011;45330;51.634;5.562;2023-08-21T02:53:25;12.55;;;4.10;;
59512;SDS011;45330;51.634;5.562;2023-08-21T02:55:50;13.50;;;4.30;;
59512;SDS011;45330;51.634;5.562;2023-08-21T02:58:15;12.88;;;4.25;;
59512;SDS011;45330;51.634;5.562;2023-08-21T03:00:41;16.17;;;4.40;;
59512;SDS011;45330;51.634;5.562;2023-08-21T03:03:06;12.30;;;4.28;;
59512;SDS011;45330;51.634;5.562;2023-08-21T03:05:32;12.75;;;4.60;;
59512;SDS011;45330;51.634;5.562;2023-08-21T03:07:57;15.02;;;4.40;;
59512;SDS011;45330;51.634;5.562;2023-08-21T03:10:23;13.68;;;4.75;;
59512;SDS011;45330;51.634;5.562;2023-08-21T03:12:48;12.88;;;4.70;;
59512;SDS011;45330;51.634;5.562;2023-08-21T03:15:14;15.15;;;5.30;;
59512;SDS011;45330;51.634;5.562;2023-08-21T03:17:39;15.75;;;5.47;;
59512;SDS011;45330;51.634;5.562;2023-08-21T03:20:06;16.30;;;4.88;;
59512;SDS011;45330;51.634;5.562;2023-08-21T03:22:32;14.57;;;5.00;;
59512;SDS011;45330;51.634;5.562;2023-08-21T03:24:57;13.68;;;4.82;;
59512;SDS011;45330;51.634;5.562;2023-08-21T03:27:24;12.20;;;5.05;;
59512;SDS011;45330;51.634;5.562;2023-08-21T03:29:49;14.60;;;5.22;;
59512;SDS011;45330;51.634;5.562;2023-08-21T03:32:15;16.95;;;5.28;;
59512;SDS011;45330;51.634;5.562;2023-08-21T03:34:41;16.42;;;4.80;;
59512;SDS011;45330;51.634;5.562;2023-08-21T03:37:07;16.80;;;5.15;;
59512;SDS011;45330;51.634;5.562;2023-08-21T03:39:33;16.42;;;5.63;;
59512;SDS011;45330;51.634;5.562;2023-08-21T03:41:58;17.40;;;5.38;;
59512;SDS011;45330;51.634;5.562;2023-08-21T03:44:23;20.13;;;5.63;;
59512;SDS011;45330;51.634;5.562;2023-08-21T03:46:49;17.83;;;5.85;;
59512;SDS011;45330;51.634;5.562;2023-08-21T03:49:14;14.40;;;5.70;;
59512;SDS011;45330;51.634;5.562;2023-08-21T03:51:40;14.32;;;5.60;;
59512;SDS011;45330;51.634;5.562;2023-08-21T03:54:05;16.33;;;5.82;;
59512;SDS011;45330;51.634;5.562;2023-08-21T03:56:30;14.85;;;5.70;;
59512;SDS011;45330;51.634;5.562;2023-08-21T03:58:56;16.10;;;5.53;;
59512;SDS011;45330;51.634;5.562;2023-08-21T04:01:21;17.00;;;5.88;;
59512;SDS011;45330;51.634;5.562;2023-08-21T04:03:46;15.02;;;5.88;;
59512;SDS011;45330;51.634;5.562;2023-08-21T04:06:12;17.02;;;6.25;;
59512;SDS011;45330;51.634;5.562;2023-08-21T04:08:37;17.10;;;6.18;;
59512;SDS011;45330;51.634;5.562;2023-08-21T04:11:04;15.52;;;6.03;;
59512;SDS011;45330;51.634;5.562;2023-08-21T04:13:31;18.02;;;6.22;;
59512;SDS011;45330;51.634;5.562;2023-08-21T04:15:56;17.90;;;5.88;;
59512;SDS011;45330;51.634;5.562;2023-08-21T04:18:22;18.40;;;6.22;;
59512;SDS011;45330;51.634;5.562;2023-08-21T04:20:47;17.88;;;6.63;;
59512;SDS011;45330;51.634;5.562;2023-08-21T04:23:13;18.10;;;6.15;;
59512;SDS011;45330;51.634;5.562;2023-08-21T04:25:39;18.23;;;6.28;;
59512;SDS011;45330;51.634;5.562;2023-08-21T04:28:04;16.88;;;5.72;;
59512;SDS011;45330;51.634;5.562;2023-08-21T04:30:31;18.60;;;6.03;;
59512;SDS011;45330;51.634;5.562;2023-08-21T04:32:56;14.85;;;5.85;;
59512;SDS011;45330;51.634;5.562;2023-08-21T04:35:21;19.38;;;6.53;;
59512;SDS011;45330;51.634;5.562;2023-08-21T04:37:47;17.20;;;6.20;;
59512;SDS011;45330;51.634;5.562;2023-08-21T04:40:13;19.52;;;6.03;;
59512;SDS011;45330;51.634;5.562;2023-08-21T04:42:38;17.67;;;5.85;;
59512;SDS011;45330;51.634;5.562;2023-08-21T04:45:04;15.55;;;5.97;;
59512;SDS011;45330;51.634;5.562;2023-08-21T04:47:30;16.55;;;6.30;;
59512;SDS011;45330;51.634;5.562;2023-08-21T04:49:56;18.42;;;6.65;;
59512;SDS011;45330;51.634;5.562;2023-08-21T04:52:23;15.82;;;5.88;;
59512;SDS011;45330;51.634;5.562;2023-08-21T04:54:50;17.92;;;6.53;;
59512;SDS011;45330;51.634;5.562;2023-08-21T04:57:16;18.80;;;6.85;;
59512;SDS011;45330;51.634;5.562;2023-08-21T04:59:43;19.92;;;6.47;;
59512;SDS011;45330;51.634;5.562;2023-08-21T05:02:09;17.15;;;6.30;;
59512;SDS011;45330;51.634;5.562;2023-08-21T05:04:35;17.50;;;5.75;;
59512;SDS011;45330;51.634;5.562;2023-08-21T05:07:02;18.48;;;6.07;;
59512;SDS011;45330;51.634;5.562;2023-08-21T05:09:27;17.38;;;6.22;;
59512;SDS011;45330;51.634;5.562;2023-08-21T05:11:53;15.95;;;6.30;;
59512;SDS011;45330;51.634;5.562;2023-08-21T05:14:19;16.55;;;6.20;;
59512;SDS011;45330;51.634;5.562;2023-08-21T05:16:45;17.13;;;6.35;;
59512;SDS011;45330;51.634;5.562;2023-08-21T05:19:11;20.20;;;6.88;;
59512;SDS011;45330;51.634;5.562;2023-08-21T05:21:37;19.52;;;7.00;;
59512;SDS011;45330;51.634;5.562;2023-08-21T05:24:02;17.83;;;6.82;;
59512;SDS011;45330;51.634;5.562;2023-08-21T05:26:27;17.88;;;6.93;;
59512;SDS011;45330;51.634;5.562;2023-08-21T05:28:53;19.77;;;7.00;;
59512;SDS011;45330;51.634;5.562;2023-08-21T05:31:18;16.95;;;7.25;;
59512;SDS011;45330;51.634;5.562;2023-08-21T05:33:44;17.92;;;7.22;;
59512;SDS011;45330;51.634;5.562;2023-08-21T05:36:10;19.15;;;7.88;;
59512;SDS011;45330;51.634;5.562;2023-08-21T05:38:35;18.92;;;7.72;;
59512;SDS011;45330;51.634;5.562;2023-08-21T05:41:01;20.63;;;7.80;;
59512;SDS011;45330;51.634;5.562;2023-08-21T05:43:26;18.20;;;7.32;;
59512;SDS011;45330;51.634;5.562;2023-08-21T05:45:52;21.55;;;8.65;;
59512;SDS011;45330;51.634;5.562;2023-08-21T05:48:17;19.48;;;7.90;;
59512;SDS011;45330;51.634;5.562;2023-08-21T05:50:42;20.40;;;8.13;;
59512;SDS011;45330;51.634;5.562;2023-08-21T05:53:08;19.45;;;8.50;;
59512;SDS011;45330;51.634;5.562;2023-08-21T05:55:33;18.38;;;9.07;;
59512;SDS011;45330;51.634;5.562;2023-08-21T05:58:01;20.77;;;8.32;;
59512;SDS011;45330;51.634;5.562;2023-08-21T06:00:27;20.35;;;8.63;;
59512;SDS011;45330;51.634;5.562;2023-08-21T06:02:52;18.27;;;8.18;;
59512;SDS011;45330;51.634;5.562;2023-08-21T06:05:17;20.80;;;8.40;;
59512;SDS011;45330;51.634;5.562;2023-08-21T06:07:43;19.73;;;7.72;;
59512;SDS011;45330;51.634;5.562;2023-08-21T06:10:09;18.42;;;7.15;;
59512;SDS011;45330;51.634;5.562;2023-08-21T06:12:37;16.40;;;7.18;;
59512;SDS011;45330;51.634;5.562;2023-08-21T06:15:06;19.13;;;6.22;;
59512;SDS011;45330;51.634;5.562;2023-08-21T06:17:33;15.38;;;5.97;;
59512;SDS011;45330;51.634;5.562;2023-08-21T06:19:59;14.93;;;5.80;;
59512;SDS011;45330;51.634;5.562;2023-08-21T06:22:24;19.35;;;5.97;;
59512;SDS011;45330;51.634;5.562;2023-08-21T06:24:50;18.77;;;5.50;;
59512;SDS011;45330;51.634;5.562;2023-08-21T06:27:16;16.45;;;5.60;;
59512;SDS011;45330;51.634;5.562;2023-08-21T06:29:41;15.80;;;6.15;;
59512;SDS011;45330;51.634;5.562;2023-08-21T06:32:06;18.23;;;5.93;;
59512;SDS011;45330;51.634;5.562;2023-08-21T06:34:32;15.05;;;5.53;;
59512;SDS011;45330;51.634;5.562;2023-08-21T06:36:57;17.20;;;5.85;;
59512;SDS011;45330;51.634;5.562;2023-08-21T06:39:22;18.23;;;5.93;;
59512;SDS011;45330;51.634;5.562;2023-08-21T06:41:48;18.42;;;5.72;;
59512;SDS011;45330;51.634;5.562;2023-08-21T06:44:13;17.50;;;5.65;;
59512;SDS011;45330;51.634;5.562;2023-08-21T06:46:39;16.52;;;5.57;;
59512;SDS011;45330;51.634;5.562;2023-08-21T06:49:04;15.73;;;5.20;;
59512;SDS011;45330;51.634;5.562;2023-08-21T06:51:30;13.98;;;5.15;;
59512;SDS011;45330;51.634;5.562;2023-08-21T06:53:55;17.42;;;5.82;;
59512;SDS011;45330;51.634;5.562;2023-08-21T06:56:20;17.60;;;5.22;;
59512;SDS011;45330;51.634;5.562;2023-08-21T06:58:46;15.43;;;5.05;;
59512;SDS011;45330;51.634;5.562;2023-08-21T07:01:11;15.95;;;5.38;;
59512;SDS011;45330;51.634;5.562;2023-08-21T07:03:36;17.55;;;5.13;;
59512;SDS011;45330;51.634;5.562;2023-08-21T07:06:02;11.98;;;4.60;;
59512;SDS011;45330;51.634;5.562;2023-08-21T07:08:28;17.77;;;5.07;;
59512;SDS011;45330;51.634;5.562;2023-08-21T07:10:54;16.88;;;4.90;;
59512;SDS011;45330;51.634;5.562;2023-08-21T07:13:19;16.70;;;5.32;;
59512;SDS011;45330;51.634;5.562;2023-08-21T07:15:45;16.23;;;4.70;;
59512;SDS011;45330;51.634;5.562;2023-08-21T07:18:11;14.65;;;4.75;;
59512;SDS011;45330;51.634;5.562;2023-08-21T07:20:37;15.15;;;4.22;;
59512;SDS011;45330;51.634;5.562;2023-08-21T07:23:03;14.05;;;3.95;;
59512;SDS011;45330;51.634;5.562;2023-08-21T07:25:28;13.93;;;3.50;;
59512;SDS011;45330;51.634;5.562;2023-08-21T07:27:54;10.45;;;3.25;;
59512;SDS011;45330;51.634;5.562;2023-08-21T07:30:21;12.82;;;3.25;;
59512;SDS011;45330;51.634;5.562;2023-08-21T07:32:50;12.25;;;3.45;;
59512;SDS011;45330;51.634;5.562;2023-08-21T07:35:15;13.43;;;3.08;;
59512;SDS011;45330;51.634;5.562;2023-08-21T07:37:44;13.57;;;4.18;;
59512;SDS011;45330;51.634;5.562;2023-08-21T07:40:10;9.82;;;3.15;;
59512;SDS011;45330;51.634;5.562;2023-08-21T07:42:36;13.52;;;3.13;;
59512;SDS011;45330;51.634;5.562;2023-08-21T07:45:01;18.75;;;3.22;;
59512;SDS011;45330;51.634;5.562;2023-08-21T07:47:27;11.27;;;3.03;;
59512;SDS011;45330;51.634;5.562;2023-08-21T07:49:53;13.02;;;2.90;;
59512;SDS011;45330;51.634;5.562;2023-08-21T07:52:19;10.32;;;2.78;;
59512;SDS011;45330;51.634;5.562;2023-08-21T07:54:44;10.18;;;2.25;;
59512;SDS011;45330;51.634;5.562;2023-08-21T07:57:10;11.73;;;2.80;;
59512;SDS011;45330;51.634;5.562;2023-08-21T07:59:35;11.07;;;2.90;;
59512;SDS011;45330;51.634;5.562;2023-08-21T08:02:01;10.77;;;2.58;;
59512;SDS011;45330;51.634;5.562;2023-08-21T08:04:27;12.32;;;2.92;;
59512;SDS011;45330;51.634;5.562;2023-08-21T08:06:53;11.82;;;2.90;;
59512;SDS011;45330;51.634;5.562;2023-08-21T08:09:18;11.43;;;3.10;;
59512;SDS011;45330;51.634;5.562;2023-08-21T08:11:44;12.05;;;2.58;;
59512;SDS011;45330;51.634;5.562;2023-08-21T08:14:09;11.23;;;2.72;;
59512;SDS011;45330;51.634;5.562;2023-08-21T08:16:35;13.57;;;2.75;;
59512;SDS011;45330;51.634;5.562;2023-08-21T08:19:00;13.65;;;2.90;;
59512;SDS011;45330;51.634;5.562;2023-08-21T08:21:25;13.38;;;2.80;;
59512;SDS011;45330;51.634;5.562;2023-08-21T08:23:51;15.52;;;2.85;;
59512;SDS011;45330;51.634;5.562;2023-08-21T08:26:16;14.73;;;3.38;;
59512;SDS011;45330;51.634;5.562;2023-08-21T08:28:42;12.82;;;3.00;;
59512;SDS011;45330;51.634;5.562;2023-08-21T08:31:14;12.88;;;2.95;;
59512;SDS011;45330;51.634;5.562;2023-08-21T08:33:43;13.93;;;2.50;;
59512;SDS011;45330;51.634;5.562;2023-08-21T08:36:09;13.85;;;2.83;;
59512;SDS011;45330;51.634;5.562;2023-08-21T08:38:34;10.82;;;2.33;;
59512;SDS011;45330;51.634;5.562;2023-08-21T08:41:00;11.88;;;2.63;;
59512;SDS011;45330;51.634;5.562;2023-08-21T08:43:27;15.20;;;3.28;;
59512;SDS011;45330;51.634;5.562;2023-08-21T08:45:54;14.38;;;3.03;;
59512;SDS011;45330;51.634;5.562;2023-08-21T08:48:23;10.98;;;2.83;;
59512;SDS011;45330;51.634;5.562;2023-08-21T08:50:50;13.95;;;2.80;;
59512;SDS011;45330;51.634;5.562;2023-08-21T08:53:16;12.48;;;3.00;;
59512;SDS011;45330;51.634;5.562;2023-08-21T08:55:43;10.98;;;2.80;;
59512;SDS011;45330;51.634;5.562;2023-08-21T08:58:09;13.48;;;2.72;;
59512;SDS011;45330;51.634;5.562;2023-08-21T09:00:34;12.95;;;2.90;;
59512;SDS011;45330;51.634;5.562;2023-08-21T09:03:00;10.68;;;2.55;;
59512;SDS011;45330;51.634;5.562;2023-08-21T09:05:25;11.00;;;2.88;;
59512;SDS011;45330;51.634;5.562;2023-08-21T09:08:12;13.60;;;2.83;;
59512;SDS011;45330;51.634;5.562;2023-08-21T09:10:38;13.40;;;3.08;;
59512;SDS011;45330;51.634;5.562;2023-08-21T09:13:09;10.60;;;2.70;;
59512;SDS011;45330;51.634;5.562;2023-08-21T09:15:37;12.35;;;2.47;;
59512;SDS011;45330;51.634;5.562;2023-08-21T09:18:02;8.95;;;2.30;;
59512;SDS011;45330;51.634;5.562;2023-08-21T09:20:34;12.93;;;2.88;;
59512;SDS011;45330;51.634;5.562;2023-08-21T09:23:00;9.35;;;2.20;;
59512;SDS011;45330;51.634;5.562;2023-08-21T09:25:25;12.07;;;2.30;;
59512;SDS011;45330;51.634;5.562;2023-08-21T09:27:51;10.90;;;2.60;;
59512;SDS011;45330;51.634;5.562;2023-08-21T09:30:20;13.43;;;2.50;;
59512;SDS011;45330;51.634;5.562;2023-08-21T09:32:56;12.65;;;2.42;;
59512;SDS011;45330;51.634;5.562;2023-08-21T09:35:23;11.00;;;2.72;;
59512;SDS011;45330;51.634;5.562;2023-08-21T09:37:49;11.80;;;2.60;;
59512;SDS011;45330;51.634;5.562;2023-08-21T09:40:15;13.45;;;2.78;;
59512;SDS011;45330;51.634;5.562;2023-08-21T09:42:41;10.75;;;2.30;;
59512;SDS011;45330;51.634;5.562;2023-08-21T09:45:07;8.25;;;2.25;;
59512;SDS011;45330;51.634;5.562;2023-08-21T09:47:33;10.55;;;2.00;;
59512;SDS011;45330;51.634;5.562;2023-08-21T09:49:59;9.55;;;2.55;;
59512;SDS011;45330;51.634;5.562;2023-08-21T09:52:24;12.13;;;2.70;;
59512;SDS011;45330;51.634;5.562;2023-08-21T09:54:53;9.55;;;2.60;;
59512;SDS011;45330;51.634;5.562;2023-08-21T09:57:20;13.05;;;2.58;;
59512;SDS011;45330;51.634;5.562;2023-08-21T09:59:47;12.90;;;2.45;;
59512;SDS011;45330;51.634;5.562;2023-08-21T10:02:17;11.07;;;2.60;;
59512;SDS011;45330;51.634;5.562;2023-08-21T10:04:43;10.52;;;2.60;;
59512;SDS011;45330;51.634;5.562;2023-08-21T10:07:10;10.90;;;2.20;;
59512;SDS011;45330;51.634;5.562;2023-08-21T10:09:39;12.13;;;2.60;;
59512;SDS011;45330;51.634;5.562;2023-08-21T10:12:08;11.50;;;2.58;;
59512;SDS011;45330;51.634;5.562;2023-08-21T10:14:34;13.60;;;2.70;;
59512;SDS011;45330;51.634;5.562;2023-08-21T10:17:01;12.73;;;2.70;;
59512;SDS011;45330;51.634;5.562;2023-08-21T10:19:30;13.35;;;2.78;;
59512;SDS011;45330;51.634;5.562;2023-08-21T10:21:57;10.67;;;2.73;;
59512;SDS011;45330;51.634;5.562;2023-08-21T10:24:27;11.48;;;2.42;;
59512;SDS011;45330;51.634;5.562;2023-08-21T10:26:53;14.18;;;3.90;;
59512;SDS011;45330;51.634;5.562;2023-08-21T10:29:19;13.63;;;3.22;;
59512;SDS011;45330;51.634;5.562;2023-08-21T10:31:45;12.18;;;2.53;;
59512;SDS011;45330;51.634;5.562;2023-08-21T10:34:13;10.75;;;2.40;;
59512;SDS011;45330;51.634;5.562;2023-08-21T10:36:40;10.18;;;2.35;;
59512;SDS011;45330;51.634;5.562;2023-08-21T10:39:25;7.95;;;1.90;;
59512;SDS011;45330;51.634;5.562;2023-08-21T10:42:00;9.52;;;2.00;;
59512;SDS011;45330;51.634;5.562;2023-08-21T10:49:49;11.38;;;2.42;;
59512;SDS011;45330;51.634;5.562;2023-08-21T10:52:20;9.52;;;2.10;;
59512;SDS011;45330;51.634;5.562;2023-08-21T10:54:51;12.75;;;2.65;;
59512;SDS011;45330;51.634;5.562;2023-08-21T10:57:18;11.32;;;2.70;;
59512;SDS011;45330;51.634;5.562;2023-08-21T11:05:03;5.60;;;1.70;;
59512;SDS011;45330;51.634;5.562;2023-08-21T11:07:29;4.18;;;1.52;;
59512;SDS011;45330;51.634;5.562;2023-08-21T11:10:01;6.22;;;1.45;;
59512;SDS011;45330;51.634;5.562;2023-08-21T11:12:27;5.68;;;1.40;;
59512;SDS011;45330;51.634;5.562;2023-08-21T11:14:53;9.02;;;1.70;;
59512;SDS011;45330;51.634;5.562;2023-08-21T11:17:18;4.80;;;1.60;;
59512;SDS011;45330;51.634;5.562;2023-08-21T11:19:43;5.60;;;1.60;;
59512;SDS011;45330;51.634;5.562;2023-08-21T11:22:10;7.80;;;1.80;;
59512;SDS011;45330;51.634;5.562;2023-08-21T11:27:02;13.40;;;4.40;;
59512;SDS011;45330;51.634;5.562;2023-08-21T11:29:30;6.72;;;2.22;;
59512;SDS011;45330;51.634;5.562;2023-08-21T11:32:01;12.18;;;2.70;;
59512;SDS011;45330;51.634;5.562;2023-08-21T11:34:28;10.70;;;2.42;;
59512;SDS011;45330;51.634;5.562;2023-08-21T11:36:53;9.10;;;2.40;;
59512;SDS011;45330;51.634;5.562;2023-08-21T11:39:19;9.50;;;2.50;;
59512;SDS011;45330;51.634;5.562;2023-08-21T11:41:57;6.82;;;2.10;;
59512;SDS011;45330;51.634;5.562;2023-08-21T11:44:23;9.80;;;2.13;;
59512;SDS011;45330;51.634;5.562;2023-08-21T11:46:52;10.05;;;2.35;;
59512;SDS011;45330;51.634;5.562;2023-08-21T11:49:20;8.70;;;2.53;;
59512;SDS011;45330;51.634;5.562;2023-08-21T11:51:47;7.47;;;2.10;;
59512;SDS011;45330;51.634;5.562;2023-08-21T11:54:13;10.95;;;2.50;;
59512;SDS011;45330;51.634;5.562;2023-08-21T11:56:39;7.88;;;2.55;;
59512;SDS011;45330;51.634;5.562;2023-08-21T11:59:06;8.45;;;2.42;;
59512;SDS011;45330;51.634;5.562;2023-08-21T12:01:34;10.98;;;2.50;;
59512;SDS011;45330;51.634;5.562;2023-08-21T12:04:00;8.98;;;2.30;;
59512;SDS011;45330;51.634;5.562;2023-08-21T12:06:25;9.93;;;2.20;;
59512;SDS011;45330;51.634;5.562;2023-08-21T12:08:52;9.15;;;2.28;;
59512;SDS011;45330;51.634;5.562;2023-08-21T12:11:18;7.70;;;2.42;;
59512;SDS011;45330;51.634;5.562;2023-08-21T12:13:43;8.35;;;2.50;;
59512;SDS011;45330;51.634;5.562;2023-08-21T12:16:09;9.57;;;2.20;;
59512;SDS011;45330;51.634;5.562;2023-08-21T12:18:34;8.63;;;2.22;;
59512;SDS011;45330;51.634;5.562;2023-08-21T12:21:00;8.35;;;2.20;;
59512;SDS011;45330;51.634;5.562;2023-08-21T12:23:25;11.63;;;2.47;;
59512;SDS011;45330;51.634;5.562;2023-08-21T12:25:50;5.95;;;2.10;;
59512;SDS011;45330;51.634;5.562;2023-08-21T12:28:16;12.68;;;2.50;;
59512;SDS011;45330;51.634;5.562;2023-08-21T12:30:41;9.43;;;2.53;;
59512;SDS011;45330;51.634;5.562;2023-08-21T12:33:07;6.95;;;2.13;;
59512;SDS011;45330;51.634;5.562;2023-08-21T12:35:32;9.52;;;2.33;;
59512;SDS011;45330;51.634;5.562;2023-08-21T12:37:58;9.43;;;2.10;;
59512;SDS011;45330;51.634;5.562;2023-08-21T12:40:23;10.75;;;2.17;;
59512;SDS011;45330;51.634;5.562;2023-08-21T12:42:49;8.48;;;2.30;;
59512;SDS011;45330;51.634;5.562;2023-08-21T12:45:15;8.05;;;2.30;;
59512;SDS011;45330;51.634;5.562;2023-08-21T12:47:41;8.20;;;2.30;;
59512;SDS011;45330;51.634;5.562;2023-08-21T12:50:06;8.85;;;2.35;;
59512;SDS011;45330;51.634;5.562;2023-08-21T12:52:32;5.30;;;1.95;;
59512;SDS011;45330;51.634;5.562;2023-08-21T12:54:58;8.65;;;2.30;;
59512;SDS011;45330;51.634;5.562;2023-08-21T12:57:24;6.85;;;2.10;;
59512;SDS011;45330;51.634;5.562;2023-08-21T12:59:51;9.07;;;2.40;;
59512;SDS011;45330;51.634;5.562;2023-08-21T13:02:16;9.82;;;2.67;;
59512;SDS011;45330;51.634;5.562;2023-08-21T13:04:42;8.75;;;2.50;;
59512;SDS011;45330;51.634;5.562;2023-08-21T13:07:08;10.32;;;2.50;;
59512;SDS011;45330;51.634;5.562;2023-08-21T13:09:33;9.55;;;2.30;;
59512;SDS011;45330;51.634;5.562;2023-08-21T13:11:59;7.15;;;2.13;;
59512;SDS011;45330;51.634;5.562;2023-08-21T13:14:25;10.80;;;2.30;;
59512;SDS011;45330;51.634;5.562;2023-08-21T13:16:50;11.27;;;2.58;;
59512;SDS011;45330;51.634;5.562;2023-08-21T13:19:16;8.70;;;2.33;;
59512;SDS011;45330;51.634;5.562;2023-08-21T13:21:41;9.55;;;2.22;;
59512;SDS011;45330;51.634;5.562;2023-08-21T13:24:06;7.80;;;2.20;;
59512;SDS011;45330;51.634;5.562;2023-08-21T13:26:32;8.60;;;2.38;;
59512;SDS011;45330;51.634;5.562;2023-08-21T13:28:58;7.13;;;2.30;;
59512;SDS011;45330;51.634;5.562;2023-08-21T13:31:23;7.50;;;2.05;;
59512;SDS011;45330;51.634;5.562;2023-08-21T13:33:49;7.97;;;2.08;;
59512;SDS011;45330;51.634;5.562;2023-08-21T13:36:15;7.65;;;2.13;;
59512;SDS011;45330;51.634;5.562;2023-08-21T13:38:42;11.75;;;2.17;;
59512;SDS011;45330;51.634;5.562;2023-08-21T13:41:08;6.63;;;2.00;;
59512;SDS011;45330;51.634;5.562;2023-08-21T13:43:34;7.47;;;2.13;;
59512;SDS011;45330;51.634;5.562;2023-08-21T13:46:00;6.22;;;2.08;;
59512;SDS011;45330;51.634;5.562;2023-08-21T13:48:26;8.80;;;2.17;;
59512;SDS011;45330;51.634;5.562;2023-08-21T13:50:51;7.55;;;2.08;;
59512;SDS011;45330;51.634;5.562;2023-08-21T13:53:16;8.02;;;2.17;;
59512;SDS011;45330;51.634;5.562;2023-08-21T13:55:42;8.20;;;1.90;;
59512;SDS011;45330;51.634;5.562;2023-08-21T13:58:07;7.85;;;1.95;;
59512;SDS011;45330;51.634;5.562;2023-08-21T14:00:33;8.25;;;2.30;;
59512;SDS011;45330;51.634;5.562;2023-08-21T14:02:58;8.73;;;1.85;;
59512;SDS011;45330;51.634;5.562;2023-08-21T14:05:24;9.32;;;2.00;;
59512;SDS011;45330;51.634;5.562;2023-08-21T14:07:51;6.80;;;1.92;;
59512;SDS011;45330;51.634;5.562;2023-08-21T14:10:16;8.60;;;2.20;;
59512;SDS011;45330;51.634;5.562;2023-08-21T14:12:42;4.72;;;1.58;;
59512;SDS011;45330;51.634;5.562;2023-08-21T14:15:07;7.90;;;2.00;;
59512;SDS011;45330;51.634;5.562;2023-08-21T14:17:33;7.22;;;2.03;;
59512;SDS011;45330;51.634;5.562;2023-08-21T14:19:58;3.92;;;1.70;;
59512;SDS011;45330;51.634;5.562;2023-08-21T14:22:24;8.43;;;1.75;;
59512;SDS011;45330;51.634;5.562;2023-08-21T14:24:49;6.25;;;1.80;;
59512;SDS011;45330;51.634;5.562;2023-08-21T14:27:15;6.95;;;1.60;;
59512;SDS011;45330;51.634;5.562;2023-08-21T14:29:41;5.15;;;1.70;;
59512;SDS011;45330;51.634;5.562;2023-08-21T14:32:08;5.93;;;1.73;;
59512;SDS011;45330;51.634;5.562;2023-08-21T14:34:34;4.55;;;2.05;;
59512;SDS011;45330;51.634;5.562;2023-08-21T14:37:00;4.57;;;2.05;;
59512;SDS011;45330;51.634;5.562;2023-08-21T14:39:25;5.57;;;1.90;;
59512;SDS011;45330;51.634;5.562;2023-08-21T14:41:57;7.35;;;1.70;;
59512;SDS011;45330;51.634;5.562;2023-08-21T14:44:23;8.68;;;1.77;;
59512;SDS011;45330;51.634;5.562;2023-08-21T14:46:51;9.00;;;2.38;;
59512;SDS011;45330;51.634;5.562;2023-08-21T14:49:17;9.15;;;1.90;;